Time;durP1;ratioP1;P1;durP2;ratioP2;P2;SDS_P1;SDS_P2;PMS_P1;PMS_P2;Temp;Humidity;BMP_temperature;BMP_pressure;BME280_temperature;BME280_humidity;BME280_pressure;Samples;Min_cycle;Max_cycle;Signal;HPM_P1;HPM_P2
2022/05/13 00:01:20;;;;;;;5.35;1.00;;;16.80;49.20;;;;;;4968186;28;20092;-72
2022/05/13 00:03:46;;;;;;;5.88;1.75;;;16.80;49.30;;;;;;4977280;28;20037;-72
2022/05/13 00:06:13;;;;;;;3.60;1.63;;;16.80;49.40;;;;;;4977853;28;20575;-72
2022/05/13 00:08:39;;;;;;;4.20;1.27;;;16.80;49.40;;;;;;4985190;28;20026;-71
2022/05/13 00:11:08;;;;;;;3.15;1.30;;;16.80;49.50;;;;;;4982576;28;20058;-71
2022/05/13 00:13:34;;;;;;;4.45;1.42;;;16.80;49.60;;;;;;4987176;28;20050;-71
2022/05/13 00:16:00;;;;;;;4.43;1.30;;;16.70;49.40;;;;;;4990297;28;20421;-72
2022/05/13 00:18:26;;;;;;;4.32;1.30;;;16.70;49.50;;;;;;4991950;28;20034;-71
2022/05/13 00:20:53;;;;;;;6.30;1.60;;;16.70;49.50;;;;;;4990442;28;20065;-71
2022/05/13 00:23:20;;;;;;;7.57;1.65;;;16.70;49.60;;;;;;5001628;28;20030;-72
2022/05/13 00:25:46;;;;;;;4.90;1.20;;;16.70;49.70;;;;;;5012119;28;20018;-72
2022/05/13 00:28:13;;;;;;;3.70;0.90;;;16.60;49.60;;;;;;5009069;28;20299;-73
2022/05/13 00:30:43;;;;;;;4.93;1.83;;;16.60;49.60;;;;;;4992830;28;20065;-72
2022/05/13 00:33:09;;;;;;;4.85;1.30;;;16.60;49.80;;;;;;5007855;28;20061;-72
2022/05/13 00:35:36;;;;;;;2.53;1.40;;;16.50;49.60;;;;;;4986664;28;20034;-72
2022/05/13 00:38:02;;;;;;;6.00;1.50;;;16.50;49.70;;;;;;4985514;28;20247;-72
2022/05/13 00:40:28;;;;;;;2.97;1.13;;;16.50;49.80;;;;;;4968039;28;20042;-73
2022/05/13 00:43:01;;;;;;;5.32;1.50;;;16.50;49.90;;;;;;4974593;28;20050;-72
2022/05/13 00:45:27;;;;;;;8.30;1.95;;;16.40;49.90;;;;;;4984404;28;20158;-73
2022/05/13 00:47:53;;;;;;;4.20;1.33;;;16.40;49.80;;;;;;4985337;28;20421;-73
2022/05/13 00:50:20;;;;;;;6.95;1.50;;;16.40;49.90;;;;;;4979805;28;20041;-73
2022/05/13 00:52:49;;;;;;;4.50;1.77;;;16.40;50.00;;;;;;4983884;28;20042;-74
2022/05/13 00:55:23;;;;;;;4.82;1.38;;;16.40;50.10;;;;;;4986792;28;20077;-74
2022/05/13 00:57:51;;;;;;;3.70;1.30;;;16.30;50.00;;;;;;4989769;28;20035;-73
2022/05/13 01:00:18;;;;;;;8.18;1.88;;;16.40;50.20;;;;;;4989124;28;20030;-72
2022/05/13 01:02:45;;;;;;;4.47;1.40;;;16.30;50.00;;;;;;4987457;28;20072;-73
2022/05/13 01:05:14;;;;;;;7.00;1.90;;;16.30;50.10;;;;;;4967954;28;20106;-73
2022/05/13 01:07:41;;;;;;;5.13;1.52;;;16.30;50.20;;;;;;4987132;28;20049;-73
2022/05/13 01:10:19;;;;;;;5.30;1.77;;;16.30;50.20;;;;;;4985246;28;20562;-73
2022/05/13 01:12:50;;;;;;;5.30;1.60;;;16.30;50.40;;;;;;4968537;28;20398;-73
2022/05/13 01:15:27;;;;;;;4.78;1.55;;;16.30;50.40;;;;;;4986411;28;20051;-73
2022/05/13 01:18:06;;;;;;;9.00;2.08;;;16.30;50.50;;;;;;4988734;28;20037;-73
2022/05/13 01:20:39;;;;;;;6.18;1.77;;;16.30;50.50;;;;;;4984366;28;20030;-73
2022/05/13 01:23:10;;;;;;;4.00;1.65;;;16.30;50.50;;;;;;4982669;28;20496;-73
2022/05/13 01:25:43;;;;;;;4.40;1.35;;;16.30;50.60;;;;;;4987774;28;20041;-73
2022/05/13 01:28:11;;;;;;;;;;;16.30;50.70;;;;;;4987384;28;20386;-73
2022/05/13 01:30:48;;;;;;;6.15;2.55;;;16.20;50.30;;;;;;4985310;28;19921;-73
2022/05/13 01:33:14;;;;;;;5.93;1.65;;;16.30;51.00;;;;;;4987664;28;20469;-73
2022/05/13 01:35:42;;;;;;;4.70;1.33;;;16.20;50.30;;;;;;4987204;28;20089;-73
2022/05/13 01:38:09;;;;;;;6.53;1.85;;;16.20;50.40;;;;;;4986277;28;20026;-73
2022/05/13 01:40:36;;;;;;;6.13;1.98;;;16.20;50.50;;;;;;4982984;28;20065;-73
2022/05/13 01:43:03;;;;;;;7.03;1.60;;;16.20;50.60;;;;;;4986939;28;20042;-73
2022/05/13 01:45:29;;;;;;;7.65;1.60;;;16.20;51.10;;;;;;4991167;28;20035;-73
2022/05/13 01:47:54;;;;;;;7.25;1.40;;;16.20;50.90;;;;;;4987720;28;20112;-73
2022/05/13 01:50:22;;;;;;;5.38;1.58;;;16.10;50.80;;;;;;4985772;28;20030;-72
2022/05/13 01:52:48;;;;;;;5.78;2.00;;;16.10;50.90;;;;;;4998134;28;20030;-73
2022/05/13 01:55:15;;;;;;;4.88;1.88;;;16.10;50.90;;;;;;4985587;28;20041;-73
2022/05/13 01:57:41;;;;;;;6.53;1.98;;;16.10;51.00;;;;;;4996614;28;20685;-72
2022/05/13 02:00:07;;;;;;;5.25;1.55;;;16.10;51.10;;;;;;4982435;28;20027;-73
2022/05/13 02:05:22;;;;;;;4.07;1.40;;;16.00;51.10;;;;;;5001593;28;20039;-73
2022/05/13 02:07:48;;;;;;;4.75;1.30;;;16.00;51.10;;;;;;4989654;28;20030;-73
2022/05/13 02:10:14;;;;;;;6.97;1.80;;;16.00;51.20;;;;;;4955837;28;20030;-73
2022/05/13 02:12:40;;;;;;;6.75;1.75;;;16.00;51.30;;;;;;4995925;28;20037;-73
2022/05/13 02:15:07;;;;;;;7.43;2.35;;;16.00;51.40;;;;;;4993691;28;20112;-73
2022/05/13 02:17:33;;;;;;;5.78;1.58;;;16.00;51.40;;;;;;4998928;28;20026;-73
2022/05/13 02:19:59;;;;;;;6.55;1.50;;;16.00;51.40;;;;;;4988862;28;20056;-72
2022/05/13 02:22:25;;;;;;;6.07;1.75;;;16.00;51.50;;;;;;4993880;28;20045;-73
2022/05/13 02:24:51;;;;;;;8.40;2.20;;;16.00;51.60;;;;;;5003013;28;20030;-73
2022/05/13 02:27:17;;;;;;;8.73;2.05;;;16.00;51.60;;;;;;4984899;28;20120;-73
2022/05/13 02:29:43;;;;;;;5.43;1.88;;;16.00;51.70;;;;;;4983362;28;20061;-73
2022/05/13 02:32:08;;;;;;;5.78;1.92;;;16.00;51.80;;;;;;4994352;28;20108;-73
2022/05/13 02:34:36;;;;;;;8.40;1.98;;;15.90;51.60;;;;;;5001610;28;20550;-73
2022/05/13 02:37:04;;;;;;;6.95;1.42;;;15.90;51.70;;;;;;4998688;28;20034;-73
2022/05/13 02:39:30;;;;;;;6.95;2.10;;;16.00;51.90;;;;;;4988096;28;20030;-73
2022/05/13 02:41:56;;;;;;;9.65;2.53;;;15.90;51.80;;;;;;4964797;28;20060;-73
2022/05/13 02:44:23;;;;;;;6.05;2.35;;;15.90;51.90;;;;;;4998701;28;20510;-73
2022/05/13 02:46:49;;;;;;;6.60;1.55;;;15.90;51.90;;;;;;4995192;28;20041;-73
2022/05/13 02:49:15;;;;;;;5.53;1.75;;;15.90;51.90;;;;;;5001282;28;20556;-73
2022/05/13 02:51:45;;;;;;;7.15;2.22;;;15.90;52.00;;;;;;4993303;28;20434;-73
2022/05/13 02:54:10;;;;;;;4.72;2.03;;;15.90;52.10;;;;;;4994765;28;20266;-73
2022/05/13 02:56:36;;;;;;;9.70;2.15;;;15.90;52.20;;;;;;4981674;28;20089;-73
2022/05/13 02:59:03;;;;;;;9.52;2.80;;;15.90;52.20;;;;;;4988057;28;20049;-73
2022/05/13 03:01:29;;;;;;;7.07;2.08;;;15.80;52.10;;;;;;4987515;28;21058;-73
2022/05/13 03:03:54;;;;;;;8.25;2.15;;;15.80;52.20;;;;;;4994267;28;20030;-73
2022/05/13 03:06:21;;;;;;;7.57;2.75;;;15.80;52.30;;;;;;4987736;28;20331;-73
2022/05/13 03:08:48;;;;;;;9.55;2.55;;;15.80;52.40;;;;;;4960180;28;20026;-73
2022/05/13 03:11:14;;;;;;;4.78;1.38;;;15.80;52.40;;;;;;4987846;28;20121;-73
2022/05/13 03:13:40;;;;;;;5.47;1.50;;;15.80;52.50;;;;;;4995945;28;20370;-73
2022/05/13 03:16:09;;;;;;;6.45;1.95;;;15.80;52.50;;;;;;4986344;28;20029;-73
2022/05/13 03:18:36;;;;;;;5.90;1.98;;;15.80;52.60;;;;;;4987080;28;20089;-72
2022/05/13 03:21:02;;;;;;;5.63;1.98;;;15.80;52.60;;;;;;4968751;28;20041;-72
2022/05/13 03:23:28;;;;;;;8.65;2.20;;;15.80;52.70;;;;;;4973753;28;20529;-73
2022/05/13 03:25:54;;;;;;;7.93;2.15;;;15.80;52.70;;;;;;4995638;28;20061;-72
2022/05/13 03:28:20;;;;;;;6.97;2.38;;;15.80;52.70;;;;;;4988720;28;20511;-73
2022/05/13 03:30:47;;;;;;;5.82;1.73;;;15.80;52.80;;;;;;4986926;28;20587;-73
2022/05/13 03:33:12;;;;;;;8.18;2.72;;;15.80;52.80;;;;;;4980532;28;20152;-73
2022/05/13 03:35:39;;;;;;;6.55;2.05;;;15.80;52.80;;;;;;4987198;28;20204;-73
2022/05/13 03:38:05;;;;;;;8.95;2.17;;;15.80;52.90;;;;;;4974215;28;20030;-73
2022/05/13 03:40:31;;;;;;;5.43;2.65;;;15.90;53.10;;;;;;4987322;28;20038;-73
2022/05/13 03:42:56;;;;;;;8.52;2.47;;;15.80;52.90;;;;;;4995780;28;20073;-73
2022/05/13 03:45:23;;;;;;;5.38;2.30;;;15.80;53.00;;;;;;4987449;28;20153;-73
2022/05/13 03:47:49;;;;;;;6.60;2.45;;;15.80;53.00;;;;;;4998099;28;20060;-73
2022/05/13 03:50:16;;;;;;;6.63;2.28;;;15.80;53.00;;;;;;4988276;28;20037;-72
2022/05/13 03:52:42;;;;;;;10.35;2.25;;;15.80;53.00;;;;;;4986012;28;20069;-73
2022/05/13 03:55:11;;;;;;;6.60;1.95;;;15.80;53.10;;;;;;4969712;28;20098;-73
2022/05/13 03:57:36;;;;;;;7.65;1.45;;;15.80;53.20;;;;;;4982976;28;20556;-73
2022/05/13 04:00:04;;;;;;;7.70;2.35;;;15.80;53.20;;;;;;4965012;28;20033;-73
2022/05/13 04:02:30;;;;;;;6.70;1.73;;;15.80;53.20;;;;;;4987320;28;20065;-73
2022/05/13 04:10:26;;;;;;;7.70;1.98;;;15.80;53.30;;;;;;4987271;28;20089;-73
2022/05/13 04:18:22;;;;;;;8.05;2.00;;;15.70;53.20;;;;;;4992617;28;20026;-73
2022/05/13 04:20:48;;;;;;;9.18;2.17;;;15.70;53.20;;;;;;4987640;28;20587;-73
2022/05/13 04:23:16;;;;;;;9.35;2.55;;;15.70;53.30;;;;;;4984332;28;20477;-73
2022/05/13 04:25:42;;;;;;;6.32;1.80;;;15.70;53.40;;;;;;4992040;28;20142;-73
2022/05/13 04:28:07;;;;;;;6.53;1.85;;;15.70;53.50;;;;;;4992748;28;20117;-73
2022/05/13 04:30:33;;;;;;;9.77;2.17;;;15.70;53.50;;;;;;4961202;28;20030;-72
2022/05/13 04:32:59;;;;;;;6.47;1.67;;;15.70;53.60;;;;;;4987166;28;20042;-72
2022/05/13 04:35:25;;;;;;;6.80;2.13;;;15.70;53.60;;;;;;4986301;28;20041;-72
2022/05/13 04:37:51;;;;;;;6.93;1.33;;;15.70;53.70;;;;;;4985361;28;20049;-72
2022/05/13 04:40:17;;;;;;;9.20;2.67;;;15.70;53.70;;;;;;4973377;28;20121;-72
2022/05/13 04:42:52;;;;;;;7.85;2.28;;;15.70;53.80;;;;;;4995681;28;20038;-73
2022/05/13 04:45:25;;;;;;;6.07;2.13;;;15.70;53.80;;;;;;4972124;28;20074;-74
2022/05/13 04:50:38;;;;;;;12.50;3.13;;;15.80;54.10;;;;;;4997402;28;20109;-72
2022/05/13 04:53:05;;;;;;;5.97;2.05;;;15.80;54.10;;;;;;4987605;28;20034;-73
2022/05/13 04:55:32;;;;;;;6.32;1.60;;;15.80;54.20;;;;;;4994982;28;20140;-73
2022/05/13 04:57:57;;;;;;;7.60;1.88;;;15.70;54.00;;;;;;4981280;28;20061;-73
2022/05/13 05:00:23;;;;;;;6.82;2.00;;;15.80;54.30;;;;;;4993843;28;20026;-73
2022/05/13 05:02:49;;;;;;;7.63;3.00;;;15.70;54.20;;;;;;4993283;28;20054;-73
2022/05/13 05:05:16;;;;;;;7.25;2.25;;;15.80;54.40;;;;;;4993293;28;20038;-73
2022/05/13 05:07:42;;;;;;;9.40;2.53;;;15.80;54.40;;;;;;4990440;28;20048;-73
2022/05/13 05:10:10;;;;;;;9.48;1.67;;;15.80;54.50;;;;;;4992357;28;20150;-74
2022/05/13 05:12:37;;;;;;;6.57;2.38;;;15.80;54.60;;;;;;4995802;28;20551;-73
2022/05/13 05:15:04;;;;;;;18.70;5.03;;;15.80;54.70;;;;;;4992884;28;20034;-73
2022/05/13 05:17:30;;;;;;;7.75;2.25;;;15.80;54.70;;;;;;4986249;28;20368;-73
2022/05/13 05:19:56;;;;;;;7.20;2.25;;;15.80;54.70;;;;;;4990790;28;20434;-72
2022/05/13 05:22:22;;;;;;;5.97;2.25;;;15.80;54.80;;;;;;4987520;28;20034;-73
2022/05/13 05:25:06;;;;;;;8.48;1.90;;;15.90;55.00;;;;;;4986575;28;20037;-74
2022/05/13 05:27:35;;;;;;;8.10;2.75;;;15.90;54.90;;;;;;4995224;28;20030;-74
2022/05/13 05:30:04;;;;;;;12.15;3.38;;;15.90;54.90;;;;;;4985559;28;20032;-74
2022/05/13 05:32:30;;;;;;;15.02;3.03;;;16.00;55.10;;;;;;4983672;28;20029;-77
2022/05/13 05:34:56;;;;;;;15.75;2.85;;;16.00;55.00;;;;;;4995939;28;20037;-74
2022/05/13 05:37:22;;;;;;;13.80;2.88;;;16.00;55.10;;;;;;4998939;28;20038;-85
2022/05/13 05:39:47;;;;;;;12.05;3.55;;;16.00;55.10;;;;;;5000705;28;20034;-89
2022/05/13 05:42:13;;;;;;;13.35;3.10;;;16.00;55.20;;;;;;4972818;28;20387;-76
2022/05/13 05:44:39;;;;;;;14.68;2.55;;;16.00;55.30;;;;;;4979844;28;20443;-83
2022/05/13 05:47:05;;;;;;;12.05;2.88;;;16.00;55.30;;;;;;4976463;28;20054;-83
2022/05/13 05:49:32;;;;;;;12.75;2.75;;;16.00;55.30;;;;;;4985597;28;20096;-88
2022/05/13 05:51:58;;;;;;;14.07;3.60;;;16.10;55.50;;;;;;5002333;28;20092;-78
2022/05/13 05:57:14;;;;;;;12.88;2.80;;;16.10;55.50;;;;;;4985657;28;20058;-78
2022/05/13 05:59:45;;;;;;;11.17;2.97;;;16.10;55.40;;;;;;4978402;28;20062;-78
2022/05/13 06:02:12;;;;;;;12.57;2.72;;;16.20;55.60;;;;;;4976550;28;20079;-77
2022/05/13 06:04:39;;;;;;;14.43;3.22;;;16.20;55.60;;;;;;4995624;28;20026;-76
2022/05/13 06:07:09;;;;;;;13.43;2.72;;;16.20;55.60;;;;;;4983690;28;20385;-77
2022/05/13 06:09:36;;;;;;;12.15;2.50;;;16.30;55.80;;;;;;4992289;28;20137;-78
2022/05/13 06:12:03;;;;;;;9.18;2.33;;;16.30;55.70;;;;;;4980348;28;20025;-76
2022/05/13 06:14:29;;;;;;;14.55;3.20;;;16.30;55.70;;;;;;4972485;28;20034;-76
2022/05/13 06:16:55;;;;;;;15.13;3.05;;;16.40;55.80;;;;;;4983864;28;20034;-78
2022/05/13 06:19:21;;;;;;;10.43;3.25;;;16.40;55.70;;;;;;4990231;28;20030;-74
2022/05/13 06:21:47;;;;;;;15.20;4.15;;;16.50;55.80;;;;;;4967694;28;20085;-74
2022/05/13 06:24:14;;;;;;;14.63;3.80;;;16.50;55.80;;;;;;4986352;28;20033;-74
2022/05/13 06:26:43;;;;;;;15.65;2.90;;;16.50;55.80;;;;;;4977836;28;20137;-74
2022/05/13 06:29:09;;;;;;;13.38;2.90;;;16.50;55.90;;;;;;4990360;28;20587;-74
2022/05/13 06:31:36;;;;;;;19.45;3.33;;;16.50;55.90;;;;;;4990866;28;20037;-73
2022/05/13 06:34:02;;;;;;;11.48;2.63;;;16.60;56.00;;;;;;4993921;28;20185;-72
2022/05/13 06:36:28;;;;;;;11.82;3.00;;;16.70;56.20;;;;;;4985394;28;20030;-75
2022/05/13 06:38:56;;;;;;;16.90;2.75;;;16.70;56.10;;;;;;4970358;28;20029;-75
2022/05/13 06:41:22;;;;;;;13.90;2.65;;;16.70;56.10;;;;;;4985512;28;20026;-73
2022/05/13 06:43:47;;;;;;;13.35;2.97;;;16.80;56.30;;;;;;4969214;28;20425;-73
2022/05/13 06:46:13;;;;;;;11.38;2.35;;;16.80;56.30;;;;;;4998715;28;20137;-74
2022/05/13 06:48:39;;;;;;;12.10;2.10;;;16.80;56.20;;;;;;4995929;28;20038;-75
2022/05/13 06:51:05;;;;;;;9.57;2.35;;;16.80;56.20;;;;;;4978550;28;20106;-75
2022/05/13 06:53:31;;;;;;;12.18;2.83;;;16.80;56.20;;;;;;4971666;28;20054;-74
2022/05/13 06:55:57;;;;;;;10.18;2.50;;;16.80;56.30;;;;;;4986923;28;20050;-73
2022/05/13 06:58:23;;;;;;;12.45;3.28;;;16.80;56.30;;;;;;4985751;28;20421;-73
2022/05/13 07:00:49;;;;;;;14.75;2.55;;;16.80;56.30;;;;;;4979703;28;20023;-79
2022/05/13 07:03:18;;;;;;;16.27;2.88;;;16.90;56.40;;;;;;4956100;28;20153;-75
2022/05/13 07:05:44;;;;;;;12.05;2.50;;;17.00;57.10;;;;;;4988487;28;20034;-74
2022/05/13 07:08:11;;;;;;;10.73;2.25;;;17.20;56.50;;;;;;4988456;28;20193;-75
2022/05/13 07:10:39;;;;;;;13.57;2.00;;;17.50;56.60;;;;;;4985833;28;20309;-76
2022/05/13 07:13:06;;;;;;;10.63;3.35;;;17.80;56.70;;;;;;4980049;28;20144;-75
2022/05/13 07:15:33;;;;;;;23.50;3.70;;;18.10;56.50;;;;;;4979624;28;20504;-75
2022/05/13 07:17:59;;;;;;;7.88;2.58;;;18.50;56.60;;;;;;4966664;28;20145;-76
2022/05/13 07:20:27;;;;;;;5.90;2.25;;;18.90;56.50;;;;;;4985904;28;20151;-77
2022/05/13 07:22:55;;;;;;;6.70;2.67;;;19.20;56.30;;;;;;4993480;28;20065;-79
2022/05/13 07:25:21;;;;;;;9.85;1.92;;;19.70;56.50;;;;;;4987633;28;20120;-78
2022/05/13 07:27:46;;;;;;;8.10;1.77;;;20.10;56.50;;;;;;4988788;28;20129;-75
2022/05/13 07:30:13;;;;;;;7.10;2.65;;;20.50;56.80;;;;;;4987282;28;20125;-77
2022/05/13 07:32:39;;;;;;;6.95;2.08;;;21.10;57.00;;;;;;4979515;28;20128;-78
2022/05/13 07:35:06;;;;;;;7.00;2.00;;;21.80;56.80;;;;;;4973580;28;20032;-78
2022/05/13 07:37:32;;;;;;;9.70;2.35;;;22.30;56.50;;;;;;4987624;28;20026;-78
2022/05/13 07:42:43;;;;;;;6.90;1.65;;;22.50;56.10;;;;;;4998503;28;20038;-78
2022/05/13 07:45:09;;;;;;;5.15;1.60;;;22.60;56.30;;;;;;4991863;28;20030;-77
2022/05/13 07:47:36;;;;;;;8.30;1.70;;;22.80;56.40;;;;;;5003192;28;20176;-79
2022/05/13 07:50:03;;;;;;;7.85;1.88;;;23.00;56.30;;;;;;4994807;28;20041;-78
2022/05/13 07:52:29;;;;;;;8.73;1.95;;;23.20;56.00;;;;;;4993773;28;20022;-79
2022/05/13 07:54:55;;;;;;;7.25;1.90;;;23.50;56.10;;;;;;4998686;28;20407;-78
2022/05/13 07:57:21;;;;;;;8.10;1.85;;;23.60;55.70;;;;;;4984188;28;20042;-77
2022/05/13 08:02:37;;;;;;;14.30;3.05;;;24.00;55.70;;;;;;4976096;28;20042;-78
2022/05/13 08:05:03;;;;;;;6.28;1.58;;;24.20;55.30;;;;;;4967391;28;20053;-78
2022/05/13 08:07:29;;;;;;;7.88;1.98;;;24.50;55.20;;;;;;4982272;28;20399;-77
2022/05/13 08:09:55;;;;;;;7.50;2.58;;;24.70;54.80;;;;;;4993689;28;20026;-79
2022/05/13 08:12:21;;;;;;;4.82;1.52;;;25.00;54.70;;;;;;4994490;28;20037;-77
2022/05/13 08:14:47;;;;;;;5.70;1.98;;;25.20;54.10;;;;;;4983552;28;20065;-79
2022/05/13 08:17:13;;;;;;;8.18;1.80;;;25.30;53.70;;;;;;4980268;28;20034;-80
2022/05/13 08:19:38;;;;;;;9.73;2.35;;;25.30;53.40;;;;;;4958130;28;20033;-79
2022/05/13 08:22:05;;;;;;;8.55;2.08;;;25.30;53.10;;;;;;4980524;28;20042;-79
2022/05/13 08:24:31;;;;;;;7.35;1.80;;;25.20;52.90;;;;;;4981426;28;20766;-79
2022/05/13 08:26:57;;;;;;;5.70;1.92;;;25.20;52.80;;;;;;4989680;28;20030;-78
2022/05/13 08:29:23;;;;;;;7.75;2.15;;;25.20;52.80;;;;;;4988751;28;20062;-75
2022/05/13 08:31:50;;;;;;;4.70;2.13;;;25.10;52.70;;;;;;4984615;28;20528;-75
2022/05/13 08:34:16;;;;;;;5.90;2.03;;;25.10;52.70;;;;;;4987435;28;20027;-76
2022/05/13 08:36:43;;;;;;;5.38;1.80;;;25.10;52.60;;;;;;4984967;28;20582;-75
2022/05/13 08:39:10;;;;;;;6.88;2.10;;;25.20;52.50;;;;;;4991970;28;20563;-76
2022/05/13 08:42:04;;;;;;;8.10;1.98;;;25.30;52.30;;;;;;4994580;28;20147;-75
2022/05/13 08:44:31;;;;;;;6.78;1.95;;;25.30;51.90;;;;;;4987313;28;20044;-75
2022/05/13 08:47:02;;;;;;;10.50;2.30;;;25.30;52.00;;;;;;4990776;28;20046;-75
2022/05/13 08:49:37;;;;;;;4.45;1.70;;;25.30;52.00;;;;;;4989384;28;20034;-75
2022/05/13 08:53:06;;;;;;;9.02;2.20;;;25.30;51.90;;;;;;4983473;28;20030;-75
2022/05/13 08:54:52;;;;;;;6.30;2.08;;;25.30;51.80;;;;;;4983311;28;20026;-75
2022/05/13 08:57:19;;;;;;;5.32;1.42;;;25.40;51.60;;;;;;4971432;28;20038;-76
2022/05/13 08:59:54;;;;;;;7.32;2.60;;;25.60;51.30;;;;;;4987826;28;20042;-76
2022/05/13 09:02:30;;;;;;;5.55;1.95;;;25.70;50.90;;;;;;4984160;28;20137;-75
2022/05/13 09:05:22;;;;;;;3.70;1.50;;;25.80;50.70;;;;;;4967752;28;20141;-75
2022/05/13 09:07:51;;;;;;;5.63;1.58;;;25.90;50.40;;;;;;4976209;28;20373;-75
2022/05/13 09:10:17;;;;;;;8.32;2.22;;;26.00;50.40;;;;;;4986618;28;20038;-76
2022/05/13 09:13:05;;;;;;;6.90;2.25;;;26.00;50.10;;;;;;4985150;28;20043;-75
2022/05/13 09:15:44;;;;;;;4.03;1.95;;;26.10;49.70;;;;;;4984368;28;20134;-75
2022/05/13 09:18:32;;;;;;;10.02;2.20;;;26.20;49.60;;;;;;4983625;28;20057;-76
2022/05/13 09:21:02;;;;;;;6.28;2.05;;;26.30;49.30;;;;;;4986572;28;20026;-75
2022/05/13 09:23:29;;;;;;;6.85;2.33;;;26.30;49.30;;;;;;4981797;28;20038;-75
2022/05/13 09:26:19;;;;;;;5.95;1.98;;;26.40;49.10;;;;;;4984105;28;20023;-76
2022/05/13 09:29:05;;;;;;;6.22;2.13;;;26.50;48.80;;;;;;4992745;28;20042;-75
2022/05/13 09:31:34;;;;;;;7.55;2.58;;;26.50;48.70;;;;;;4966760;28;20038;-76
2022/05/13 09:34:00;;;;;;;7.47;2.15;;;26.50;48.80;;;;;;4982973;28;20066;-75
2022/05/13 09:36:26;;;;;;;7.18;2.47;;;26.50;48.60;;;;;;4986681;28;20039;-76
2022/05/13 09:38:55;;;;;;;8.23;2.58;;;26.50;48.50;;;;;;4996643;28;20074;-76
2022/05/13 09:41:33;;;;;;;6.30;2.10;;;26.60;48.40;;;;;;4974906;28;20124;-76
2022/05/13 09:44:10;;;;;;;8.57;2.83;;;26.50;48.10;;;;;;4976096;28;20035;-75
2022/05/13 09:46:50;;;;;;;6.90;2.45;;;26.50;48.10;;;;;;4986585;28;20078;-75
2022/05/13 09:49:33;;;;;;;8.48;2.13;;;26.40;48.70;;;;;;4994314;28;20601;-76
2022/05/13 09:52:09;;;;;;;6.90;1.70;;;26.40;47.90;;;;;;4983367;28;20110;-75
2022/05/13 09:54:47;;;;;;;6.10;2.17;;;26.40;47.90;;;;;;4979632;28;20501;-76
2022/05/13 09:57:33;;;;;;;5.68;2.38;;;26.50;47.90;;;;;;4991801;28;20501;-76
2022/05/13 10:00:08;;;;;;;7.47;2.08;;;26.50;47.60;;;;;;4982729;28;20049;-76
2022/05/13 10:02:43;;;;;;;6.68;2.00;;;26.60;48.20;;;;;;4977592;28;20079;-76
2022/05/13 10:05:26;;;;;;;4.88;1.83;;;26.70;47.50;;;;;;4982567;28;20030;-76
2022/05/13 10:07:59;;;;;;;8.52;1.95;;;26.70;47.00;;;;;;4987055;28;20030;-76
2022/05/13 10:16:07;;;;;;;6.97;2.20;;;26.80;46.80;;;;;;4985214;28;20083;-76
2022/05/13 10:18:37;;;;;;;6.32;1.98;;;26.90;46.70;;;;;;4972204;28;20496;-76
2022/05/13 10:21:48;;;;;;;5.65;2.10;;;27.00;46.70;;;;;;4999902;28;20384;-75
2022/05/13 10:24:13;;;;;;;4.55;2.50;;;27.10;46.10;;;;;;4986725;28;20458;-75
2022/05/13 10:26:43;;;;;;;4.80;1.75;;;27.30;46.20;;;;;;4992228;28;20454;-74
2022/05/13 10:29:43;;;;;;;4.72;1.85;;;27.40;45.80;;;;;;4998672;28;20493;-74
2022/05/13 10:32:24;;;;;;;6.38;1.95;;;27.60;45.60;;;;;;4990117;28;20034;-75
2022/05/13 10:34:54;;;;;;;4.40;1.70;;;27.70;45.50;;;;;;4981152;28;20030;-74
2022/05/13 10:38:08;;;;;;;5.78;2.00;;;27.90;45.50;;;;;;4974864;28;20112;-75
2022/05/13 10:40:37;;;;;;;5.60;2.00;;;28.00;45.10;;;;;;4991534;28;20572;-74
2022/05/13 10:43:17;;;;;;;5.47;1.73;;;28.00;45.20;;;;;;4992186;28;20069;-74
2022/05/13 10:45:44;;;;;;;8.82;1.90;;;28.00;45.00;;;;;;4993315;28;20542;-74
2022/05/13 10:48:16;;;;;;;5.32;1.42;;;28.00;44.90;;;;;;4990509;28;20057;-75
2022/05/13 10:50:59;;;;;;;3.60;1.63;;;28.00;44.80;;;;;;4987860;28;20026;-75
2022/05/13 10:54:03;;;;;;;4.88;1.90;;;28.00;44.90;;;;;;4985922;28;20303;-74
2022/05/13 10:57:02;;;;;;;5.03;1.80;;;27.90;44.70;;;;;;4991720;28;20042;-74
2022/05/13 10:59:38;;;;;;;4.50;1.95;;;28.00;44.90;;;;;;4982970;28;20537;-75
2022/05/13 11:02:31;;;;;;;7.28;2.47;;;28.00;44.80;;;;;;4988546;28;20053;-74
2022/05/13 11:05:03;;;;;;;4.75;1.75;;;27.90;44.70;;;;;;4981622;28;20036;-74
2022/05/13 11:07:37;;;;;;;5.68;1.95;;;28.00;44.80;;;;;;4981644;28;20031;-74
2022/05/13 11:10:09;;;;;;;4.05;1.77;;;28.00;44.70;;;;;;4977027;28;20030;-74
2022/05/13 11:12:44;;;;;;;6.00;2.28;;;28.00;44.60;;;;;;4990075;28;20474;-74
2022/05/13 11:15:38;;;;;;;6.60;1.95;;;28.00;44.20;;;;;;4982392;28;20027;-78
2022/05/13 11:18:13;;;;;;;5.13;2.13;;;28.00;43.90;;;;;;4983117;28;20042;-72
2022/05/13 11:21:06;;;;;;;4.88;2.25;;;28.00;43.70;;;;;;4995809;28;20034;-74
2022/05/13 11:25:54;;;;;;;8.57;2.35;;;28.10;44.30;;;;;;4987302;28;20045;-75
2022/05/13 11:27:09;;;;;;;7.88;2.05;;;28.20;43.60;;;;;;4968334;28;20490;-75
2022/05/13 11:30:05;;;;;;;6.97;2.17;;;28.40;43.50;;;;;;4952894;28;20049;-75
2022/05/13 11:32:56;;;;;;;6.55;1.90;;;28.60;43.20;;;;;;4982153;28;20034;-75
2022/05/13 11:35:38;;;;;;;8.18;2.60;;;28.70;43.10;;;;;;4989242;28;20107;-76
2022/05/13 11:38:24;;;;;;;6.00;2.30;;;28.80;43.20;;;;;;4983392;28;20037;-77
2022/05/13 11:40:59;;;;;;;5.07;1.90;;;29.00;43.00;;;;;;4984067;28;20037;-76
2022/05/13 11:43:49;;;;;;;5.50;2.00;;;29.10;42.90;;;;;;4994783;28;20489;-75
2022/05/13 11:46:27;;;;;;;6.22;1.80;;;29.20;42.80;;;;;;4990794;28;20063;-75
2022/05/13 11:49:01;;;;;;;6.28;1.70;;;29.20;42.60;;;;;;4966867;28;20475;-74
2022/05/13 11:51:30;;;;;;;7.32;2.83;;;29.10;42.60;;;;;;4969067;28;20030;-74
2022/05/13 11:53:59;;;;;;;6.05;1.73;;;29.10;42.80;;;;;;4982395;28;20265;-74
2022/05/13 11:56:29;;;;;;;8.43;2.20;;;29.00;42.70;;;;;;4968487;28;20442;-76
2022/05/13 11:59:26;;;;;;;6.28;1.95;;;29.10;42.80;;;;;;4984539;28;20370;-75
2022/05/13 12:01:56;;;;;;;4.63;1.60;;;29.10;42.40;;;;;;4966279;28;20069;-75
2022/05/13 12:04:23;;;;;;;9.27;2.38;;;29.30;42.60;;;;;;4967260;28;20039;-76
2022/05/13 12:06:51;;;;;;;4.47;1.50;;;29.40;42.40;;;;;;4968407;28;20042;-75
2022/05/13 12:09:36;;;;;;;6.15;1.70;;;29.50;42.20;;;;;;4964539;28;20030;-75
2022/05/13 12:12:30;;;;;;;3.83;1.67;;;29.60;42.60;;;;;;4965934;28;20054;-75
2022/05/13 12:15:26;;;;;;;5.65;1.90;;;29.80;42.00;;;;;;4969557;28;20517;-75
2022/05/13 12:18:20;;;;;;;4.47;2.33;;;30.00;41.80;;;;;;4966202;28;20549;-75
2022/05/13 12:21:07;;;;;;;6.80;2.00;;;30.10;41.60;;;;;;4983307;28;20062;-76
2022/05/13 12:23:33;;;;;;;5.15;1.70;;;30.30;41.40;;;;;;4957737;28;20035;-74
2022/05/13 12:26:03;;;;;;;5.35;1.63;;;30.50;41.50;;;;;;4970013;28;20049;-75
2022/05/13 12:28:59;;;;;;;5.03;2.17;;;30.60;41.30;;;;;;4966612;28;20041;-74
2022/05/13 12:31:45;;;;;;;3.45;1.50;;;30.70;41.10;;;;;;4953432;28;20886;-75
2022/05/13 12:40:00;;;;;;;4.63;1.67;;;31.20;40.70;;;;;;4964392;28;20054;-76
2022/05/13 12:42:46;;;;;;;6.70;1.63;;;31.30;40.50;;;;;;4963650;28;20177;-76
2022/05/13 12:45:22;;;;;;;3.65;1.38;;;31.40;40.30;;;;;;4958287;28;20041;-74
2022/05/13 12:47:58;;;;;;;4.03;1.88;;;31.60;40.40;;;;;;4978149;28;20061;-74
2022/05/13 12:50:49;;;;;;;4.55;1.70;;;31.70;40.00;;;;;;4962788;28;20258;-74
2022/05/13 12:53:30;;;;;;;3.85;1.30;;;31.80;39.80;;;;;;4960858;28;20550;-74
2022/05/13 12:56:07;;;;;;;4.22;1.73;;;31.90;39.80;;;;;;4962762;28;20037;-75
2022/05/13 12:58:36;;;;;;;3.92;2.05;;;31.90;39.80;;;;;;4952628;28;20042;-73
2022/05/13 13:01:03;;;;;;;3.90;1.60;;;32.00;39.70;;;;;;4978770;28;20041;-74
2022/05/13 13:03:35;;;;;;;2.15;1.40;;;32.10;39.60;;;;;;4957261;28;20149;-75
2022/05/13 13:06:09;;;;;;;4.95;1.50;;;32.20;39.50;;;;;;4971368;28;20031;-75
2022/05/13 13:08:37;;;;;;;2.75;1.25;;;32.20;39.30;;;;;;4961555;28;20031;-75
2022/05/13 13:11:25;;;;;;;4.80;1.27;;;32.30;39.30;;;;;;4985916;28;20499;-75
2022/05/13 13:14:09;;;;;;;6.07;1.77;;;32.40;39.10;;;;;;4967056;28;20041;-75
2022/05/13 13:16:48;;;;;;;4.18;1.60;;;32.60;39.10;;;;;;4962291;28;20411;-75
2022/05/13 13:19:18;;;;;;;3.95;1.40;;;32.70;38.60;;;;;;4967743;28;20062;-75
2022/05/13 13:21:44;;;;;;;4.05;1.60;;;32.80;38.50;;;;;;4971244;28;20077;-75
2022/05/13 13:24:24;;;;;;;4.18;1.77;;;32.90;38.60;;;;;;4990884;28;20038;-76
2022/05/13 13:26:51;;;;;;;5.55;1.65;;;33.00;38.50;;;;;;4960726;28;20038;-76
2022/05/13 13:29:27;;;;;;;4.70;1.33;;;33.00;38.50;;;;;;4967339;28;20039;-75
2022/05/13 13:31:56;;;;;;;2.10;1.00;;;33.10;38.40;;;;;;4970200;28;20027;-74
2022/05/13 13:34:25;;;;;;;6.28;1.63;;;33.20;38.50;;;;;;4963067;28;20086;-75
2022/05/13 13:36:52;;;;;;;4.13;1.58;;;33.30;38.20;;;;;;4965479;28;20035;-76
2022/05/13 13:39:19;;;;;;;4.18;1.52;;;33.50;38.10;;;;;;4965558;28;20023;-75
2022/05/13 13:41:55;;;;;;;5.22;2.03;;;33.60;38.00;;;;;;4962922;28;20143;-75